createdAt,value
2019-05-18T00:00:11.882Z,0.00
2019-05-18T00:01:11.816Z,0.00
2019-05-18T00:02:11.827Z,0.00
2019-05-18T00:03:11.838Z,0.00
2019-05-18T00:04:11.841Z,0.00
2019-05-18T00:05:11.851Z,0.00
2019-05-18T00:06:11.863Z,0.00
2019-05-18T00:07:11.871Z,0.00
2019-05-18T00:08:11.874Z,0.00
2019-05-18T00:09:11.884Z,0.00
2019-05-18T00:10:11.891Z,0.00
2019-05-18T00:11:11.899Z,0.00
2019-05-18T00:12:11.908Z,0.00
2019-05-18T00:13:11.916Z,0.00
2019-05-18T00:14:11.929Z,0.00
2019-05-18T00:15:11.935Z,0.00
2019-05-18T00:16:11.937Z,0.00
2019-05-18T00:17:24.498Z,0.00
2019-05-18T00:18:11.960Z,0.00
2019-05-18T00:19:11.965Z,0.00
2019-05-18T00:20:11.981Z,0.00
2019-05-18T00:21:11.985Z,0.00
2019-05-18T00:22:11.995Z,0.00
2019-05-18T00:23:12.001Z,0.00
2019-05-18T00:24:12.010Z,0.00
2019-05-18T00:25:12.065Z,0.00
2019-05-18T00:26:12.029Z,0.00
2019-05-18T00:27:12.037Z,0.00
2019-05-18T00:28:12.048Z,0.00
2019-05-18T00:29:12.063Z,0.00
2019-05-18T00:30:12.062Z,0.00
2019-05-18T00:31:12.069Z,0.00
2019-05-18T00:32:12.093Z,0.00
2019-05-18T00:33:12.085Z,0.00
2019-05-18T00:34:12.094Z,0.00
2019-05-18T00:35:12.112Z,0.00
2019-05-18T00:36:12.109Z,0.00
2019-05-18T00:37:12.121Z,0.00
2019-05-18T00:38:12.132Z,0.00
2019-05-18T00:39:12.137Z,0.00
2019-05-18T00:40:12.145Z,0.00
2019-05-18T00:41:12.152Z,0.00
2019-05-18T00:42:12.161Z,0.00
2019-05-18T00:43:12.169Z,0.00
2019-05-18T00:44:12.179Z,0.00
2019-05-18T00:45:12.186Z,0.00
2019-05-18T00:46:12.195Z,0.00
2019-05-18T00:47:12.199Z,0.00
2019-05-18T00:48:12.215Z,0.00
2019-05-18T00:49:12.216Z,0.00
2019-05-18T00:50:12.234Z,0.00
2019-05-18T00:51:12.236Z,0.00
2019-05-18T00:52:12.245Z,0.00
2019-05-18T00:53:12.254Z,0.00
2019-05-18T00:54:12.262Z,0.00
2019-05-18T00:55:12.267Z,0.00
2019-05-18T00:56:12.296Z,0.00
2019-05-18T00:57:12.286Z,0.00
2019-05-18T00:58:12.296Z,0.00
2019-05-18T00:59:16.102Z,0.00
2019-05-18T01:00:12.311Z,0.00
2019-05-18T01:01:12.326Z,0.00
2019-05-18T01:02:12.326Z,0.00
2019-05-18T01:03:12.336Z,0.00
2019-05-18T01:04:12.343Z,0.00
2019-05-18T01:05:12.353Z,0.00
2019-05-18T01:06:12.361Z,0.00
2019-05-18T01:07:12.366Z,0.00
2019-05-18T01:08:12.377Z,0.00
2019-05-18T01:09:12.388Z,0.00
2019-05-18T01:10:12.395Z,0.00
2019-05-18T01:11:12.401Z,0.00
2019-05-18T01:12:12.409Z,0.00
2019-05-18T01:13:12.418Z,0.00
2019-05-18T01:14:12.422Z,0.00
2019-05-18T01:15:12.437Z,0.00
2019-05-18T01:16:12.445Z,0.00
2019-05-18T01:17:12.452Z,0.00
2019-05-18T01:18:12.459Z,0.00
2019-05-18T01:19:12.469Z,0.00
2019-05-18T01:20:12.477Z,0.00
2019-05-18T01:21:12.483Z,0.00
2019-05-18T01:22:12.492Z,0.00
2019-05-18T01:23:12.499Z,0.00
2019-05-18T01:24:12.509Z,0.00
2019-05-18T01:25:12.516Z,0.00
2019-05-18T01:26:12.525Z,0.00
2019-05-18T01:27:12.534Z,0.00
2019-05-18T01:28:12.544Z,0.00
2019-05-18T01:29:12.551Z,0.00
2019-05-18T01:30:12.551Z,0.00
2019-05-18T01:31:12.565Z,0.00
2019-05-18T01:32:12.578Z,0.00
2019-05-18T01:33:12.581Z,0.00
2019-05-18T01:34:12.590Z,0.00
2019-05-18T01:35:12.607Z,0.00
2019-05-18T01:36:12.609Z,0.00
2019-05-18T01:37:12.615Z,0.00
2019-05-18T01:38:12.621Z,0.00
2019-05-18T01:39:12.632Z,0.00
2019-05-18T01:40:12.641Z,0.00
2019-05-18T01:41:12.653Z,0.00
2019-05-18T01:42:12.654Z,0.00
2019-05-18T01:43:12.661Z,0.00
2019-05-18T01:44:12.667Z,0.00
2019-05-18T01:45:17.303Z,0.00
2019-05-18T01:46:12.687Z,0.00
2019-05-18T01:47:12.696Z,0.00
2019-05-18T01:48:14.559Z,0.00
2019-05-18T01:49:12.710Z,0.00
2019-05-18T01:50:12.720Z,0.00
2019-05-18T01:51:12.726Z,0.00
2019-05-18T01:52:12.738Z,0.00
2019-05-18T01:53:12.741Z,0.00
2019-05-18T01:54:12.757Z,0.00
2019-05-18T01:55:12.757Z,0.00
2019-05-18T01:56:12.766Z,0.00
2019-05-18T01:57:12.775Z,0.00
2019-05-18T01:58:12.778Z,0.00
2019-05-18T01:59:12.784Z,0.00
2019-05-18T02:00:12.797Z,0.00
2019-05-18T02:01:12.801Z,0.00
2019-05-18T02:02:12.815Z,0.00
2019-05-18T02:03:12.822Z,0.00
2019-05-18T02:04:12.830Z,0.00
2019-05-18T02:05:12.843Z,0.00
2019-05-18T02:06:12.842Z,0.00
2019-05-18T02:07:12.859Z,0.00
2019-05-18T02:08:12.864Z,0.00
2019-05-18T02:09:12.862Z,0.00
2019-05-18T02:10:12.870Z,0.00
2019-05-18T02:11:12.882Z,0.00
2019-05-18T02:12:12.889Z,0.00
2019-05-18T02:13:12.902Z,0.00
2019-05-18T02:14:12.903Z,0.00
2019-05-18T02:15:12.919Z,0.00
2019-05-18T02:16:12.922Z,0.00
2019-05-18T02:17:12.932Z,0.00
2019-05-18T02:18:26.871Z,0.00
2019-05-18T02:19:12.949Z,0.00
2019-05-18T02:20:12.955Z,0.00
2019-05-18T02:21:12.964Z,0.00
2019-05-18T02:22:12.969Z,0.00
2019-05-18T02:23:12.979Z,0.00
2019-05-18T02:24:13.011Z,0.00
2019-05-18T02:25:12.993Z,0.00
2019-05-18T02:26:13.004Z,0.00
2019-05-18T02:27:13.007Z,0.00
2019-05-18T02:28:13.017Z,0.00
2019-05-18T02:29:13.027Z,0.00
2019-05-18T02:30:17.231Z,0.00
2019-05-18T02:31:13.045Z,0.00
2019-05-18T02:32:13.052Z,0.00
2019-05-18T02:33:13.052Z,0.00
2019-05-18T02:34:13.065Z,0.00
2019-05-18T02:35:13.099Z,0.00
2019-05-18T02:36:13.085Z,0.00
2019-05-18T02:37:13.083Z,0.00
2019-05-18T02:38:13.097Z,0.00
2019-05-18T02:39:13.108Z,0.00
2019-05-18T02:40:13.113Z,0.00
2019-05-18T02:41:13.135Z,0.00
2019-05-18T02:42:13.127Z,0.00
2019-05-18T02:43:13.134Z,0.00
2019-05-18T02:44:13.143Z,0.00
2019-05-18T02:45:13.150Z,0.00
2019-05-18T02:46:13.157Z,0.00
2019-05-18T02:47:13.169Z,0.00
2019-05-18T02:48:13.170Z,0.00
2019-05-18T02:49:13.179Z,0.00
2019-05-18T02:50:13.201Z,0.00
2019-05-18T02:51:13.191Z,0.00
2019-05-18T02:52:13.200Z,0.00
2019-05-18T02:53:13.214Z,0.00
2019-05-18T02:54:13.219Z,0.00
2019-05-18T02:55:13.224Z,0.00
2019-05-18T02:56:13.240Z,0.00
2019-05-18T02:57:13.263Z,0.00
2019-05-18T02:58:13.250Z,0.00
2019-05-18T02:59:13.257Z,0.00
2019-05-18T03:00:13.265Z,0.00
2019-05-18T03:01:13.272Z,0.00
2019-05-18T03:02:13.277Z,0.00
2019-05-18T03:03:13.285Z,0.00
2019-05-18T03:04:13.296Z,0.00
2019-05-18T03:05:13.310Z,0.00
2019-05-18T03:06:13.308Z,0.00
2019-05-18T03:07:13.318Z,0.00
2019-05-18T03:08:13.329Z,4.00
2019-05-18T03:09:13.330Z,4.00
2019-05-18T03:10:13.340Z,0.00
2019-05-18T03:11:13.350Z,4.00
2019-05-18T03:12:13.356Z,4.00
2019-05-18T03:13:13.369Z,4.00
2019-05-18T03:14:13.377Z,8.00
2019-05-18T03:15:13.377Z,8.00
2019-05-18T03:16:13.388Z,8.00
2019-05-18T03:17:13.390Z,8.00
2019-05-18T03:18:13.404Z,12.00
2019-05-18T03:19:13.410Z,16.00
2019-05-18T03:20:13.418Z,16.00
2019-05-18T03:21:13.418Z,16.00
2019-05-18T03:22:13.432Z,20.00
2019-05-18T03:23:13.438Z,24.00
2019-05-18T03:24:13.452Z,28.00
2019-05-18T03:25:13.465Z,32.00
2019-05-18T03:26:13.464Z,32.00
2019-05-18T03:27:13.474Z,40.00
2019-05-18T03:28:13.476Z,44.00
2019-05-18T03:29:13.489Z,48.00
2019-05-18T03:30:13.496Z,56.00
2019-05-18T03:31:13.502Z,64.00
2019-05-18T03:32:13.508Z,72.00
2019-05-18T03:33:13.555Z,76.00
2019-05-18T03:34:13.526Z,88.00
2019-05-18T03:35:13.537Z,96.00
2019-05-18T03:36:13.538Z,104.00
2019-05-18T03:37:13.545Z,116.00
2019-05-18T03:38:13.551Z,124.00
2019-05-18T03:39:13.568Z,136.00
2019-05-18T03:40:13.567Z,144.00
2019-05-18T03:41:13.577Z,156.00
2019-05-18T03:42:13.584Z,168.00
2019-05-18T03:43:13.592Z,184.00
2019-05-18T03:44:13.599Z,196.00
2019-05-18T03:45:13.614Z,212.00
2019-05-18T03:46:13.613Z,228.00
2019-05-18T03:47:13.622Z,244.00
2019-05-18T03:48:13.631Z,256.00
2019-05-18T03:49:26.090Z,272.00
2019-05-18T03:50:13.661Z,292.00
2019-05-18T03:51:13.648Z,308.00
2019-05-18T03:52:13.657Z,324.00
2019-05-18T03:53:13.665Z,340.00
2019-05-18T03:54:13.670Z,356.00
2019-05-18T03:55:13.683Z,376.00
2019-05-18T03:56:13.692Z,392.00
2019-05-18T03:57:13.700Z,408.00
2019-05-18T03:58:13.703Z,424.00
2019-05-18T03:59:13.710Z,444.00
2019-05-18T04:00:13.716Z,460.00
2019-05-18T04:01:13.749Z,476.00
2019-05-18T04:02:13.732Z,492.00
2019-05-18T04:03:13.739Z,512.00
2019-05-18T04:04:13.747Z,528.00
2019-05-18T04:05:13.814Z,544.00
2019-05-18T04:06:13.762Z,560.00
2019-05-18T04:07:13.766Z,580.00
2019-05-18T04:08:13.783Z,596.00
2019-05-18T04:09:13.786Z,612.00
2019-05-18T04:10:13.789Z,632.00
2019-05-18T04:11:13.798Z,644.00
2019-05-18T04:12:13.816Z,660.00
2019-05-18T04:13:13.820Z,676.00
2019-05-18T04:14:13.828Z,696.00
2019-05-18T04:15:13.823Z,712.00
2019-05-18T04:16:13.837Z,724.00
2019-05-18T04:17:13.850Z,744.00
2019-05-18T04:18:13.854Z,760.00
2019-05-18T04:19:13.859Z,780.00
2019-05-18T04:20:13.863Z,800.00
2019-05-18T04:21:13.875Z,816.00
2019-05-18T04:22:13.909Z,828.00
2019-05-18T04:23:13.887Z,844.00
2019-05-18T04:24:13.896Z,864.00
2019-05-18T04:25:13.901Z,880.00
2019-05-18T04:26:13.910Z,896.00
2019-05-18T04:27:13.931Z,916.00
2019-05-18T04:28:13.926Z,932.00
2019-05-18T04:29:13.931Z,944.00
2019-05-18T04:30:13.938Z,960.00
2019-05-18T04:31:13.948Z,980.00
2019-05-18T04:32:13.959Z,996.00
2019-05-18T04:33:13.962Z,1008.00
2019-05-18T04:34:13.971Z,1024.00
2019-05-18T04:35:13.978Z,1052.00
2019-05-18T04:36:13.990Z,1056.00
2019-05-18T04:37:13.993Z,1064.00
2019-05-18T04:38:13.999Z,1072.00
2019-05-18T04:39:14.010Z,1084.00
2019-05-18T04:40:14.014Z,1096.00
2019-05-18T04:41:14.021Z,1108.00
2019-05-18T04:42:14.030Z,1120.00
2019-05-18T04:43:14.039Z,1132.00
2019-05-18T04:44:14.046Z,1144.00
2019-05-18T04:45:14.053Z,1156.00
2019-05-18T04:46:14.057Z,1164.00
2019-05-18T04:47:14.064Z,1176.00
2019-05-18T04:48:14.076Z,1188.00
2019-05-18T04:49:14.083Z,1200.00
2019-05-18T04:50:14.090Z,1212.00
2019-05-18T04:51:14.104Z,1224.00
2019-05-18T04:52:14.100Z,1236.00
2019-05-18T04:53:14.119Z,1248.00
2019-05-18T04:54:14.120Z,1256.00
2019-05-18T04:55:14.122Z,1272.00
2019-05-18T04:56:14.135Z,1280.00
2019-05-18T04:57:14.142Z,1296.00
2019-05-18T04:58:14.147Z,1304.00
2019-05-18T04:59:14.151Z,1316.00
2019-05-18T05:00:14.173Z,1332.00
2019-05-18T05:01:14.175Z,1344.00
2019-05-18T05:02:14.179Z,1360.00
2019-05-18T05:03:14.185Z,1368.00
2019-05-18T05:04:14.193Z,1384.00
2019-05-18T05:05:14.201Z,1392.00
2019-05-18T05:06:14.223Z,1404.00
2019-05-18T05:07:14.221Z,1424.00
2019-05-18T05:08:14.226Z,1432.00
2019-05-18T05:09:14.227Z,1444.00
2019-05-18T05:10:14.241Z,1452.00
2019-05-18T05:11:14.246Z,1464.00
2019-05-18T05:12:14.253Z,1468.00
2019-05-18T05:13:14.257Z,1476.00
2019-05-18T05:14:14.263Z,1484.00
2019-05-18T05:15:14.276Z,1488.00
2019-05-18T05:16:14.280Z,1476.00
2019-05-18T05:17:14.292Z,1436.00
2019-05-18T05:18:14.297Z,1444.00
2019-05-18T05:19:14.303Z,1436.00
2019-05-18T05:20:19.571Z,1436.00
2019-05-18T05:21:14.322Z,1440.00
2019-05-18T05:22:14.327Z,1456.00
2019-05-18T05:23:14.337Z,1464.00
2019-05-18T05:24:14.343Z,1468.00
2019-05-18T05:25:14.348Z,1472.00
2019-05-18T05:26:14.357Z,1480.00
2019-05-18T05:27:14.365Z,1480.00
2019-05-18T05:28:14.372Z,1480.00
2019-05-18T05:29:14.380Z,1488.00
2019-05-18T05:30:14.393Z,1492.00
2019-05-18T05:31:14.396Z,1492.00
2019-05-18T05:32:14.407Z,1496.00
2019-05-18T05:33:14.407Z,1504.00
2019-05-18T05:34:14.419Z,1508.00
2019-05-18T05:35:14.428Z,1520.00
2019-05-18T05:36:14.430Z,1528.00
2019-05-18T05:37:14.440Z,1540.00
2019-05-18T05:38:14.445Z,1564.00
2019-05-18T05:39:14.454Z,1600.00
2019-05-18T05:40:14.482Z,1624.00
2019-05-18T05:41:16.661Z,1628.00
2019-05-18T05:42:14.483Z,1672.00
2019-05-18T05:43:14.486Z,1664.00
2019-05-18T05:44:14.491Z,1632.00
2019-05-18T05:45:14.499Z,1684.00
2019-05-18T05:46:14.506Z,1676.00
2019-05-18T05:47:14.517Z,1700.00
2019-05-18T05:48:14.525Z,1688.00
2019-05-18T05:49:14.528Z,1704.00
2019-05-18T05:50:14.537Z,1732.00
2019-05-18T05:51:14.546Z,1748.00
2019-05-18T05:52:14.555Z,1756.00
2019-05-18T05:53:14.565Z,1768.00
2019-05-18T05:54:14.569Z,1780.00
2019-05-18T05:55:14.579Z,1792.00
2019-05-18T05:56:14.587Z,1812.00
2019-05-18T05:57:14.589Z,1828.00
2019-05-18T05:58:14.600Z,1840.00
2019-05-18T05:59:14.607Z,1856.00
2019-05-18T06:00:14.616Z,1884.00
2019-05-18T06:01:14.623Z,1916.00
2019-05-18T06:02:14.628Z,1948.00
2019-05-18T06:03:14.638Z,1952.00
2019-05-18T06:04:14.647Z,1944.00
2019-05-18T06:05:14.654Z,1956.00
2019-05-18T06:06:14.662Z,804.00
2019-05-18T06:07:14.669Z,1948.00
2019-05-18T06:08:14.673Z,1952.00
2019-05-18T06:09:14.685Z,1972.00
2019-05-18T06:10:14.693Z,1992.00
2019-05-18T06:11:14.713Z,2000.00
2019-05-18T06:12:14.711Z,1972.00
2019-05-18T06:13:14.718Z,2004.00
2019-05-18T06:14:14.718Z,2016.00
2019-05-18T06:15:14.731Z,2028.00
2019-05-18T06:16:14.740Z,2020.00
2019-05-18T06:17:14.747Z,1992.00
2019-05-18T06:18:14.764Z,1952.00
2019-05-18T06:19:14.786Z,1968.00
2019-05-18T06:20:14.769Z,1904.00
2019-05-18T06:21:14.779Z,1852.00
2019-05-18T06:22:14.791Z,1872.00
2019-05-18T06:23:14.790Z,1904.00
2019-05-18T06:24:14.801Z,1996.00
2019-05-18T06:25:14.827Z,2028.00
2019-05-18T06:26:14.823Z,2028.00
2019-05-18T06:27:14.825Z,2044.00
2019-05-18T06:28:14.832Z,2056.00
2019-05-18T06:29:14.839Z,2056.00
2019-05-18T06:30:14.848Z,2032.00
2019-05-18T06:31:14.859Z,2040.00
2019-05-18T06:32:14.860Z,2036.00
2019-05-18T06:33:14.868Z,2044.00
2019-05-18T06:34:14.880Z,2052.00
2019-05-18T06:35:14.884Z,2056.00
2019-05-18T06:36:14.896Z,2072.00
2019-05-18T06:37:14.903Z,2128.00
2019-05-18T06:38:14.910Z,2112.00
2019-05-18T06:39:14.916Z,2104.00
2019-05-18T06:40:14.927Z,2100.00
2019-05-18T06:41:14.933Z,2104.00
2019-05-18T06:42:14.964Z,2120.00
2019-05-18T06:43:14.947Z,2112.00
2019-05-18T06:44:14.958Z,2116.00
2019-05-18T06:45:14.971Z,2148.00
2019-05-18T06:46:14.971Z,2212.00
2019-05-18T06:47:14.981Z,2284.00
2019-05-18T06:48:14.990Z,2328.00
2019-05-18T06:49:15.005Z,2524.00
2019-05-18T06:50:15.009Z,2792.00
2019-05-18T06:51:15.022Z,3240.00
2019-05-18T06:52:15.019Z,2872.00
2019-05-18T06:53:15.028Z,2748.00
2019-05-18T06:54:15.036Z,2736.00
2019-05-18T06:55:15.046Z,2816.00
2019-05-18T06:56:15.058Z,2992.00
2019-05-18T06:57:15.061Z,3048.00
2019-05-18T06:58:15.070Z,3064.00
2019-05-18T06:59:16.390Z,3076.00
2019-05-18T07:00:15.087Z,3120.00
2019-05-18T07:01:15.092Z,3000.00
2019-05-18T07:02:15.101Z,3004.00
2019-05-18T07:03:15.107Z,3004.00
2019-05-18T07:04:15.118Z,3024.00
2019-05-18T07:05:15.128Z,3088.00
2019-05-18T07:06:15.131Z,3164.00
2019-05-18T07:07:15.142Z,3272.00
2019-05-18T07:08:15.156Z,3372.00
2019-05-18T07:09:15.156Z,3464.00
2019-05-18T07:10:15.195Z,3552.00
2019-05-18T07:11:15.176Z,3656.00
2019-05-18T07:12:15.186Z,3712.00
2019-05-18T07:13:15.191Z,3728.00
2019-05-18T07:14:25.250Z,3812.00
2019-05-18T07:15:15.210Z,3928.00
2019-05-18T07:16:15.215Z,3900.00
2019-05-18T07:17:15.227Z,3936.00
2019-05-18T07:18:15.239Z,4052.00
2019-05-18T07:19:15.244Z,4188.00
2019-05-18T07:20:15.252Z,4156.00
2019-05-18T07:21:22.401Z,4084.00
2019-05-18T07:22:15.266Z,3896.00
2019-05-18T07:23:15.277Z,3716.00
2019-05-18T07:24:15.303Z,3596.00
2019-05-18T07:25:15.300Z,3444.00
2019-05-18T07:26:15.305Z,3320.00
2019-05-18T07:27:15.309Z,3292.00
2019-05-18T07:28:15.322Z,3284.00
2019-05-18T07:29:15.326Z,3244.00
2019-05-18T07:30:15.339Z,3288.00
2019-05-18T07:31:15.343Z,3188.00
2019-05-18T07:32:15.355Z,3120.00
2019-05-18T07:33:15.358Z,3048.00
2019-05-18T07:34:15.368Z,3016.00
2019-05-18T07:35:15.377Z,2972.00
2019-05-18T07:36:15.390Z,2940.00
2019-05-18T07:37:15.396Z,2924.00
2019-05-18T07:38:15.403Z,2912.00
2019-05-18T07:39:15.417Z,2896.00
2019-05-18T07:40:15.423Z,2848.00
2019-05-18T07:41:15.433Z,2812.00
2019-05-18T07:42:15.440Z,2808.00
2019-05-18T07:43:15.449Z,2780.00
2019-05-18T07:44:15.461Z,2748.00
2019-05-18T07:45:15.464Z,2732.00
2019-05-18T07:46:15.473Z,2836.00
2019-05-18T07:47:15.481Z,3076.00
2019-05-18T07:48:15.486Z,3164.00
2019-05-18T07:49:15.497Z,2908.00
2019-05-18T07:50:15.507Z,2744.00
2019-05-18T07:51:15.517Z,2680.00
2019-05-18T07:52:17.276Z,2696.00
2019-05-18T07:53:15.531Z,2764.00
2019-05-18T07:54:15.541Z,2820.00
2019-05-18T07:55:15.551Z,2892.00
2019-05-18T07:56:15.560Z,2964.00
2019-05-18T07:57:15.570Z,3024.00
2019-05-18T07:58:15.589Z,3068.00
2019-05-18T07:59:15.581Z,3092.00
2019-05-18T08:00:15.590Z,3120.00
2019-05-18T08:01:15.601Z,3128.00
2019-05-18T08:02:15.610Z,3136.00
2019-05-18T08:03:15.616Z,3144.00
2019-05-18T08:04:15.629Z,3160.00
2019-05-18T08:05:15.636Z,3188.00
2019-05-18T08:06:15.641Z,3216.00
2019-05-18T08:07:15.652Z,3236.00
2019-05-18T08:08:15.661Z,3264.00
2019-05-18T08:09:15.667Z,3264.00
2019-05-18T08:10:15.681Z,3268.00
2019-05-18T08:11:15.717Z,3248.00
2019-05-18T08:12:15.694Z,3252.00
2019-05-18T08:13:15.775Z,3292.00
2019-05-18T08:14:15.715Z,3344.00
2019-05-18T08:15:15.722Z,3368.00
2019-05-18T08:16:15.734Z,3396.00
2019-05-18T08:17:15.740Z,3408.00
2019-05-18T08:18:15.748Z,3396.00
2019-05-18T08:19:15.758Z,3412.00
2019-05-18T08:20:15.766Z,3352.00
2019-05-18T08:21:15.784Z,3372.00
2019-05-18T08:22:15.785Z,3440.00
2019-05-18T08:23:15.795Z,3436.00
2019-05-18T08:24:15.803Z,3524.00
2019-05-18T08:25:15.810Z,3280.00
2019-05-18T08:26:15.831Z,3608.00
2019-05-18T08:27:15.831Z,3672.00
2019-05-18T08:28:15.845Z,3744.00
2019-05-18T08:29:15.849Z,3800.00
2019-05-18T08:30:15.863Z,3868.00
2019-05-18T08:31:15.865Z,3948.00
2019-05-18T08:32:15.872Z,3984.00
2019-05-18T08:33:15.880Z,3972.00
2019-05-18T08:34:15.893Z,3964.00
2019-05-18T08:35:15.902Z,3920.00
2019-05-18T08:36:15.911Z,3972.00
2019-05-18T08:37:15.946Z,4020.00
2019-05-18T08:38:15.928Z,4064.00
2019-05-18T08:39:15.934Z,4040.00
2019-05-18T08:40:15.944Z,4064.00
2019-05-18T08:41:15.954Z,4128.00
2019-05-18T08:42:15.965Z,4236.00
2019-05-18T08:43:15.967Z,4332.00
2019-05-18T08:44:15.982Z,4436.00
2019-05-18T08:45:15.987Z,4540.00
2019-05-18T08:46:15.998Z,4632.00
2019-05-18T08:47:16.011Z,4744.00
2019-05-18T08:48:16.015Z,4848.00
2019-05-18T08:49:16.028Z,4952.00
2019-05-18T08:50:16.035Z,5144.00
2019-05-18T08:51:16.040Z,5380.00
2019-05-18T08:52:16.055Z,5520.00
2019-05-18T08:53:16.065Z,5716.00
2019-05-18T08:54:16.070Z,5876.00
2019-05-18T08:55:16.079Z,5988.00
2019-05-18T08:56:16.097Z,6092.00
2019-05-18T08:57:16.098Z,6200.00
2019-05-18T08:58:16.107Z,6296.00
2019-05-18T08:59:16.117Z,6372.00
2019-05-18T09:00:16.125Z,6444.00
2019-05-18T09:01:16.132Z,6524.00
2019-05-18T09:02:17.684Z,6564.00
2019-05-18T09:03:23.848Z,6588.00
2019-05-18T09:05:20.641Z,6712.00
2019-05-18T09:06:20.638Z,6780.00
2019-05-18T09:08:25.238Z,6904.00
2019-05-18T09:09:25.262Z,6868.00
2019-05-18T09:11:29.629Z,6684.00
2019-05-18T09:12:29.623Z,6696.00
2019-05-18T09:14:34.108Z,6796.00
2019-05-18T09:15:34.116Z,6856.00
2019-05-18T09:17:38.619Z,6916.00
2019-05-18T09:18:38.608Z,6952.00
2019-05-18T09:20:43.080Z,7220.00
2019-05-18T09:21:43.086Z,7380.00
2019-05-18T09:23:36.510Z,7584.00
2019-05-18T09:24:36.511Z,7884.00
2019-05-18T09:26:41.016Z,8424.00
2019-05-18T09:27:41.007Z,8508.00
2019-05-18T09:29:45.520Z,8776.00
2019-05-18T09:30:45.507Z,8920.00
2019-05-18T09:32:50.011Z,9272.00
2019-05-18T09:33:50.015Z,9420.00
2019-05-18T09:35:55.541Z,9548.00
2019-05-18T09:36:55.542Z,9524.00
2019-05-18T09:39:00.075Z,9556.00
2019-05-18T09:40:00.061Z,9608.00
2019-05-18T09:42:04.575Z,9696.00
2019-05-18T09:43:04.578Z,9700.00
2019-05-18T09:45:09.114Z,9592.00
2019-05-18T09:46:09.110Z,9520.00
2019-05-18T09:48:13.609Z,9236.00
2019-05-18T09:49:13.609Z,9116.00
2019-05-18T09:51:18.122Z,8860.00
2019-05-18T09:52:18.127Z,8720.00
2019-05-18T09:54:11.589Z,8548.00
2019-05-18T09:55:11.552Z,8488.00
2019-05-18T09:57:16.055Z,8340.00
2019-05-18T09:58:16.060Z,8328.00
2019-05-18T10:00:20.546Z,8840.00
2019-05-18T10:01:20.647Z,8532.00
2019-05-18T10:03:25.081Z,8080.00
2019-05-18T10:04:25.060Z,7916.00
2019-05-18T10:05:25.120Z,7896.00
2019-05-18T10:06:25.080Z,7932.00
2019-05-18T10:07:25.154Z,7972.00
2019-05-18T10:08:25.097Z,7860.00
2019-05-18T10:09:25.401Z,7820.00
2019-05-18T10:10:25.119Z,7840.00
2019-05-18T10:11:25.144Z,7884.00
2019-05-18T10:12:25.138Z,7964.00
2019-05-18T10:13:25.178Z,8020.00
2019-05-18T10:14:25.158Z,8072.00
2019-05-18T10:15:25.175Z,8136.00
2019-05-18T10:16:25.183Z,8136.00
2019-05-18T10:17:25.198Z,8156.00
2019-05-18T10:18:25.206Z,8124.00
2019-05-18T10:19:25.227Z,8108.00
2019-05-18T10:20:25.227Z,8084.00
2019-05-18T10:21:25.243Z,8080.00
2019-05-18T10:22:25.252Z,8072.00
2019-05-18T10:23:25.262Z,8056.00
2019-05-18T10:24:25.273Z,8068.00
2019-05-18T10:25:25.282Z,8136.00
2019-05-18T10:26:25.292Z,8160.00
2019-05-18T10:27:25.299Z,8240.00
2019-05-18T10:28:25.312Z,8328.00
2019-05-18T10:29:25.327Z,8408.00
2019-05-18T10:30:25.336Z,8408.00
2019-05-18T10:31:25.345Z,8404.00
2019-05-18T10:32:25.352Z,8480.00
2019-05-18T10:33:25.362Z,8564.00
2019-05-18T10:34:25.375Z,8552.00
2019-05-18T10:35:25.389Z,8464.00
2019-05-18T10:36:25.397Z,8180.00
2019-05-18T10:37:25.410Z,8036.00
2019-05-18T10:38:25.427Z,8036.00
2019-05-18T10:39:25.431Z,8072.00
2019-05-18T10:40:25.447Z,8132.00
2019-05-18T10:41:25.448Z,8172.00
2019-05-18T10:42:25.461Z,8136.00
2019-05-18T10:43:25.479Z,8164.00
2019-05-18T10:44:25.484Z,8184.00
2019-05-18T10:45:25.502Z,8304.00
2019-05-18T10:46:25.508Z,8488.00
2019-05-18T10:47:25.519Z,8632.00
2019-05-18T10:48:25.524Z,8672.00
2019-05-18T10:49:25.538Z,8336.00
2019-05-18T10:50:25.569Z,7840.00
2019-05-18T10:51:25.556Z,8012.00
2019-05-18T10:52:25.571Z,10676.00
2019-05-18T10:53:28.847Z,11616.00
2019-05-18T10:54:25.592Z,10844.00
2019-05-18T10:55:25.607Z,10340.00
2019-05-18T10:56:25.614Z,10180.00
2019-05-18T10:57:25.625Z,10316.00
2019-05-18T10:58:25.643Z,10272.00
2019-05-18T10:59:25.651Z,10444.00
2019-05-18T11:00:25.659Z,10576.00
2019-05-18T11:01:25.673Z,10656.00
2019-05-18T11:02:25.682Z,10620.00
2019-05-18T11:03:25.694Z,11340.00
2019-05-18T11:04:25.705Z,11060.00
2019-05-18T11:05:25.717Z,12104.00
2019-05-18T11:06:25.726Z,10824.00
2019-05-18T11:07:28.849Z,10964.00
2019-05-18T11:08:25.749Z,13580.00
2019-05-18T11:09:25.765Z,13288.00
2019-05-18T11:10:25.773Z,14424.00
2019-05-18T11:11:25.789Z,14676.00
2019-05-18T11:12:25.792Z,15984.00
2019-05-18T11:13:25.805Z,15352.00
2019-05-18T11:14:25.824Z,16864.00
2019-05-18T11:15:25.827Z,16768.00
2019-05-18T11:16:25.868Z,18304.00
2019-05-18T11:17:25.849Z,21280.00
2019-05-18T11:18:25.865Z,17344.00
2019-05-18T11:19:25.870Z,58560.00
2019-05-18T11:20:25.882Z,66976.00
2019-05-18T11:21:25.898Z,52960.00
2019-05-18T11:22:25.914Z,67104.00
2019-05-18T11:23:25.926Z,64000.00
2019-05-18T11:24:25.976Z,65312.00
2019-05-18T11:25:25.953Z,71392.00
2019-05-18T11:26:25.963Z,71104.00
2019-05-18T11:27:25.980Z,72288.00
2019-05-18T11:28:25.993Z,73504.00
2019-05-18T11:29:26.016Z,73664.00
2019-05-18T11:30:26.018Z,74496.00
2019-05-18T11:31:26.033Z,72384.00
2019-05-18T11:32:26.047Z,70688.00
2019-05-18T11:33:26.063Z,21696.00
2019-05-18T11:34:26.087Z,15576.00
2019-05-18T11:35:26.094Z,14092.00
2019-05-18T11:36:26.111Z,25984.00
2019-05-18T11:37:26.123Z,66816.00
2019-05-18T11:38:26.139Z,79232.00
2019-05-18T11:39:26.150Z,77888.00
2019-05-18T11:40:26.164Z,74272.00
2019-05-18T11:41:26.179Z,74464.00
2019-05-18T11:42:26.208Z,77312.00
2019-05-18T11:43:26.223Z,86944.00
2019-05-18T11:44:26.235Z,89792.00
2019-05-18T11:45:26.274Z,89760.00
2019-05-18T11:46:26.264Z,86176.00
2019-05-18T11:47:26.285Z,81536.00
2019-05-18T11:48:26.294Z,87264.00
2019-05-18T11:49:29.088Z,85952.00
2019-05-18T11:50:26.328Z,89696.00
2019-05-18T11:51:26.349Z,24416.00
2019-05-18T11:52:26.367Z,20448.00
2019-05-18T11:53:26.380Z,100448.00
2019-05-18T11:54:26.407Z,106624.00
2019-05-18T11:55:26.420Z,105760.00
2019-05-18T11:56:26.437Z,78272.00
2019-05-18T11:57:26.455Z,98848.00
2019-05-18T11:58:26.474Z,104512.00
2019-05-18T11:59:26.492Z,101856.00
2019-05-18T12:00:26.519Z,94272.00
2019-05-18T12:01:26.529Z,91648.00
2019-05-18T12:02:26.549Z,99232.00
2019-05-18T12:03:26.570Z,104384.00
2019-05-18T12:04:26.585Z,105376.00
2019-05-18T12:05:26.607Z,104416.00
2019-05-18T12:06:26.632Z,86240.00
2019-05-18T12:07:26.645Z,14636.00
2019-05-18T12:08:26.665Z,11040.00
2019-05-18T12:09:26.706Z,10272.00
2019-05-18T12:10:26.704Z,11680.00
2019-05-18T12:11:26.723Z,17120.00
2019-05-18T12:12:26.746Z,105376.00
2019-05-18T12:13:26.762Z,102624.00
2019-05-18T12:14:26.782Z,97216.00
2019-05-18T12:15:26.797Z,99808.00
2019-05-18T12:16:26.819Z,101856.00
2019-05-18T12:17:26.838Z,100704.00
2019-05-18T12:18:26.855Z,103264.00
2019-05-18T12:19:26.874Z,104064.00
2019-05-18T12:20:26.893Z,99584.00
2019-05-18T12:21:26.911Z,99168.00
2019-05-18T12:22:26.933Z,27360.00
2019-05-18T12:23:26.955Z,100416.00
2019-05-18T12:24:26.973Z,102816.00
2019-05-18T12:25:27.014Z,101376.00
2019-05-18T12:26:27.012Z,96576.00
2019-05-18T12:27:27.033Z,94752.00
2019-05-18T12:28:27.052Z,83680.00
2019-05-18T12:29:27.075Z,72256.00
2019-05-18T12:30:27.102Z,67872.00
2019-05-18T12:31:27.111Z,52224.00
2019-05-18T12:32:27.127Z,76864.00
2019-05-18T12:33:27.166Z,81696.00
2019-05-18T12:34:27.174Z,87296.00
2019-05-18T12:35:27.193Z,79648.00
2019-05-18T12:36:27.215Z,76864.00
2019-05-18T12:37:27.235Z,77120.00
2019-05-18T12:38:27.254Z,67872.00
2019-05-18T12:39:27.279Z,25216.00
2019-05-18T12:40:27.300Z,23264.00
2019-05-18T12:41:27.320Z,69792.00
2019-05-18T12:42:27.336Z,42528.00
2019-05-18T12:43:27.411Z,73472.00